• Join FlightAware (Why Join?)
  • Login
  • US Flag 
12:16AM EDT


 

Airport Tracker/Info


-or-


 

Live Flight TrackerFlight Track Log ✈ ASQ4283 ✈ 07-Jul-2013 ✈ KORD - CYUL

Flight Track Log - Related Links

Times and Time Zones

All times are in EDT time to prevent confusion due to time zone crossing. See the ASQ4283 flight status page for this flight to view local times or setup timezone preferences in your user account.

Time Position Orientation Groundspeed Altitude Reporting Facility
EDT Latitude Longitude Course Direction KTS MPH feet Rate Location/Type
09:56AM 42.0167 -87.9500 14° North 186 214 2,200  Level Chicago TRACON
09:57AM 42.0667 -87.9333 14° North 235 270 4,000 1,860 Climbing Chicago TRACON
09:58AM 42.1000 -87.8333 66° East 277 319 6,200 2,040 Climbing Chicago TRACON
09:59AM 42.1333 -87.7333 66° East 287 330 8,400 1,980 Climbing Chicago TRACON
10:00AM 42.1500 -87.6333 77° East 295 339 10,200 1,860 Climbing Chicago TRACON
10:01AM 42.1839 -87.4875 73° East 304 350 12,900 1,560 Climbing Chicago Center
10:02AM 42.2097 -87.3739 73° East 316 364 14,100 960 Climbing Chicago Center
10:03AM 42.2367 -87.2517 73° East 337 388 15,000 420 Climbing Chicago Center
10:04AM 42.2728 -87.0914 73° East 375 432 15,000  Level Chicago Center
10:06AM 42.2842 -86.9475 84° East 385 443 15,000 300 Level Chicago Center
10:07AM 42.2900 -86.8056 87° East 382 440 15,700 840 Climbing Chicago Center
10:08AM 42.2950 -86.6592 87° East 386 444 16,800 960 Climbing Chicago Center
10:09AM 42.3006 -86.5147 87° East 387 445 17,700 960 Climbing Chicago Center
10:10AM 42.3064 -86.3522 87° East 382 440 18,900 1,080 Climbing Chicago Center
10:11AM 42.3106 -86.2089 88° East 383 441 20,000 960 Climbing Chicago Center
10:12AM 42.3150 -86.0653 88° East 386 444 21,000 960 Climbing Chicago Center
10:13AM 42.3128 -85.9214 91° East 386 444 22,000 960 Climbing Chicago Center
10:14AM 42.3114 -85.7753 91° East 390 449 23,100 1,080 Climbing Chicago Center
10:15AM 42.3083 -85.5989 91° East 393 452 24,300 1,080 Climbing Chicago Center
10:16AM 42.3067 -85.4503 91° East 397 457 25,400 960 Climbing Chicago Center
10:17AM 42.3050 -85.3025 91° East 396 456 26,400 960 Climbing Chicago Center
10:18AM 42.3022 -85.1578 91° East 392 451 27,400 960 Climbing Chicago Center
10:19AM 42.2992 -85.0131 92° East 388 447 28,500 960 Climbing Chicago Center
10:20AM 42.2961 -84.8689 92° East 386 444 29,500 1,080 Climbing Chicago Center
10:21AM 42.2914 -84.6950 92° East 387 445 30,800 1,080 Climbing Chicago Center
10:22AM 42.2878 -84.5508 92° East 386 444 31,800 960 Climbing Chicago Center
10:23AM 42.2947 -84.4058 86° East 392 451 32,800 1,020 Climbing Chicago Center
10:24AM 42.3164 -84.2481 79° East 386 444 34,000 1,020 Climbing Cleveland Center
10:25AM 42.3375 -84.1031 79° East 386 444 34,900 480 Climbing Cleveland Center
10:26AM 42.3586 -83.9525 79° East 391 450 35,000  Climbing Cleveland Center
10:27AM 42.3819 -83.7964 79° East 407 468 35,000  Level Cleveland Center
10:28AM 42.4053 -83.6258 79° East 434 499 35,000  Level Cleveland Center
10:29AM 42.4450 -83.4675 71° East 462 532 35,000  Level Cleveland Center
10:30AM 42.4886 -83.2919 71° East 480 552 35,000  Level Cleveland Center
10:31AM 42.5342 -83.1219 70° East 480 552 35,000  Level Cleveland Center
10:32AM 42.5775 -82.9544 71° East 474 545 35,000  Level Cleveland Center
10:33AM 42.6225 -82.7842 70° East 474 545 35,000  Level Cleveland Center
10:34AM 42.6672 -82.6161 70° East 474 545 35,000  Level Cleveland Center
10:35AM 42.7097 -82.4481 71° East 474 545 35,000  Level Cleveland Center
10:36AM 42.7539 -82.2825 70° East 469 540 35,000  Level Cleveland Center
10:37AM 42.7961 -82.1139 71° East 469 540 35,000  Level Cleveland Center
10:38AM 42.8378 -81.9450 71° East 464 534 35,000  Level Cleveland Center
10:39AM 42.8856 -81.7619 70° East 464 534 35,000  Level Cleveland Center
10:40AM 42.9333 -81.5167 75° East 470 541 35,000  Level Toronto Center
10:41AM 42.9833 -81.3667 65° Northeast 480 552 35,000  Level Toronto Center
10:42AM 43.0333 -81.2000 68° East 480 552 35,000  Level Toronto Center
10:43AM 43.0833 -81.0333 68° East 480 552 35,000  Level Toronto Center
10:44AM 43.1333 -80.8667 68° East 480 552 35,000  Level Toronto Center
10:45AM 43.2167 -80.6833 58° Northeast 480 552 35,000  Level Toronto Center
10:46AM 43.2667 -80.5333 65° Northeast 480 552 35,000  Level Toronto Center
10:47AM 43.3167 -80.3667 68° East 480 552 35,000  Level Toronto Center
10:48AM 43.3833 -80.2000 61° Northeast 480 552 35,000  Level Toronto Center
10:49AM 43.4333 -80.0167 69° East 480 552 35,000  Level Toronto Center
10:50AM 43.4833 -79.8667 65° Northeast 480 552 35,000  Level Toronto Center
10:51AM 43.5500 -79.7000 61° Northeast 480 552 35,000  Level Toronto Center
10:52AM 43.6000 -79.5167 69° East 500 575 35,000  Level Toronto Center
10:53AM 43.6500 -79.3500 67° East 480 552 35,000  Level Toronto Center
10:54AM 43.7167 -79.2000 58° Northeast 480 552 35,000  Level Toronto Center
10:55AM 43.7667 -79.0167 69° East 490 564 35,000  Level Toronto Center
10:56AM 43.8167 -78.8500 67° East 490 564 35,000  Level Toronto Center
10:57AM 43.8833 -78.6667 63° Northeast 490 564 35,000  Level Toronto Center
10:58AM 43.9333 -78.5000 67° East 490 564 35,000  Level Toronto Center
10:59AM 43.9667 -78.3333 74° East 490 564 35,000  Level Toronto Center
11:00AM 44.0333 -78.1500 63° Northeast 490 564 35,000  Level Toronto Center
11:01AM 44.0833 -77.9833 67° East 490 564 35,000  Level Toronto Center
11:02AM 44.1500 -77.8000 63° Northeast 490 564 35,000  Level Toronto Center
11:03AM 44.2000 -77.6333 67° East 490 564 35,000  Level Toronto Center
11:04AM 44.2667 -77.4500 63° Northeast 490 564 35,000  Level Toronto Center
11:05AM 44.3000 -77.2833 74° East 490 564 35,000  Level Toronto Center
11:06AM 44.3500 -77.0833 71° East 490 564 35,000  Level Toronto Center
11:07AM 44.4000 -76.9333 65° Northeast 490 564 35,000  Level Toronto Center
11:08AM 44.4667 -76.7333 65° Northeast 490 564 35,000  Level Toronto Center
11:09AM 44.5000 -76.5667 74° East 490 564 35,000  Level Toronto Center
11:10AM 44.5667 -76.3833 63° Northeast 490 564 35,000  Level Toronto Center
11:11AM 44.6167 -76.2167 67° East 490 564 35,000 -300 Level Toronto Center
11:12AM 44.6667 -76.0167 71° East 490 564 34,400 -960 Descending Toronto Center
11:13AM 44.7167 -75.8500 67° East 490 564 33,100 -1,560 Descending Toronto Center
11:14AM 44.7667 -75.6667 69° East 480 552 31,300 -1,740 Descending Toronto Center
11:15AM 44.8000 -75.5000 74° East 490 564 29,700 -1,680 Descending Toronto Center
11:16AM 44.8500 -75.3333 67° East 500 575 28,000 -1,800 Descending Toronto Center
11:17AM 44.9167 -75.1333 65° Northeast 480 552 26,200 -1,800 Descending Toronto Center
11:18AM 44.9500 -74.9667 74° East 480 552 24,400 -1,980 Descending Toronto Center
11:19AM 45.0167 -74.8000 60° Northeast 470 541 22,300 -2,160 Descending Toronto Center
11:20AM 45.0667 -74.6500 65° Northeast 460 529 20,100 -2,280 Descending Toronto Center
11:21AM 45.1333 -74.5000 58° Northeast 420 483 17,800 -2,340 Descending Toronto Center
11:22AM 45.2000 -74.3833 51° Northeast 420 483 15,500 -2,400 Descending Toronto Center
11:23AM 45.2500 -74.2333 65° Northeast 420 483 13,000 -2,400 Descending Toronto Center
11:24AM 45.3167 -74.1000 55° Northeast 390 449 10,800 -1,500 Descending Toronto Center
11:26AM 45.3667 -74.0167 49° Northeast 300 345 9,800 -1,200 Descending Montreal Center
11:27AM 45.4333 -73.9333 41° Northeast 290 334 8,200 -1,560 Descending Montreal Center
11:28AM 45.5000 -73.8667 35° Northeast 280 322 6,700 -1,680 Descending Montreal Center
11:29AM 45.5500 -73.7833 49° Northeast 270 311 4,900 -1,800 Descending Montreal Center
11:30AM 45.6000 -73.7167 43° Northeast 270 311 3,200 -960 Descending Montreal Center
11:31AM 45.6500 -73.6167 54° Northeast 250 288 3,000 -240 Descending Montreal Center